sensor_id;sensor_type;location;lat;lon;timestamp;P1;durP1;ratioP1;P2;durP2;ratioP2
4821;SDS011;2425;47.794;13.068;2023-02-01T00:00:10;1.30;;;1.20;;
4821;SDS011;2425;47.794;13.068;2023-02-01T00:02:37;1.70;;;1.30;;
4821;SDS011;2425;47.794;13.068;2023-02-01T00:05:07;1.37;;;1.10;;
4821;SDS011;2425;47.794;13.068;2023-02-01T00:07:34;2.30;;;1.00;;
4821;SDS011;2425;47.794;13.068;2023-02-01T00:10:02;2.30;;;1.20;;
4821;SDS011;2425;47.794;13.068;2023-02-01T00:12:29;1.03;;;1.03;;
4821;SDS011;2425;47.794;13.068;2023-02-01T00:14:56;2.10;;;0.90;;
4821;SDS011;2425;47.794;13.068;2023-02-01T00:17:22;1.30;;;1.00;;
4821;SDS011;2425;47.794;13.068;2023-02-01T00:19:49;1.17;;;1.00;;
4821;SDS011;2425;47.794;13.068;2023-02-01T00:22:17;1.57;;;1.27;;
4821;SDS011;2425;47.794;13.068;2023-02-01T00:24:44;2.37;;;1.20;;
4821;SDS011;2425;47.794;13.068;2023-02-01T00:27:11;1.23;;;0.80;;
4821;SDS011;2425;47.794;13.068;2023-02-01T00:29:42;1.07;;;1.07;;
4821;SDS011;2425;47.794;13.068;2023-02-01T00:32:09;0.87;;;0.87;;
4821;SDS011;2425;47.794;13.068;2023-02-01T00:34:36;1.23;;;1.00;;
4821;SDS011;2425;47.794;13.068;2023-02-01T00:37:03;3.17;;;0.90;;
4821;SDS011;2425;47.794;13.068;2023-02-01T00:39:31;0.90;;;0.90;;
4821;SDS011;2425;47.794;13.068;2023-02-01T00:42:00;0.90;;;0.90;;
4821;SDS011;2425;47.794;13.068;2023-02-01T00:44:27;1.53;;;1.23;;
4821;SDS011;2425;47.794;13.068;2023-02-01T00:46:58;0.90;;;0.90;;
4821;SDS011;2425;47.794;13.068;2023-02-01T00:49:25;0.97;;;0.97;;
4821;SDS011;2425;47.794;13.068;2023-02-01T00:51:51;1.23;;;0.80;;
4821;SDS011;2425;47.794;13.068;2023-02-01T00:54:18;0.70;;;0.70;;
4821;SDS011;2425;47.794;13.068;2023-02-01T00:56:46;2.13;;;0.87;;
4821;SDS011;2425;47.794;13.068;2023-02-01T00:59:13;1.13;;;1.03;;
4821;SDS011;2425;47.794;13.068;2023-02-01T01:01:40;2.67;;;1.03;;
4821;SDS011;2425;47.794;13.068;2023-02-01T01:04:06;1.07;;;0.97;;
4821;SDS011;2425;47.794;13.068;2023-02-01T01:06:33;1.17;;;0.97;;
4821;SDS011;2425;47.794;13.068;2023-02-01T01:09:01;0.83;;;0.83;;
4821;SDS011;2425;47.794;13.068;2023-02-01T01:11:30;1.90;;;0.90;;
4821;SDS011;2425;47.794;13.068;2023-02-01T01:13:59;1.03;;;0.90;;
4821;SDS011;2425;47.794;13.068;2023-02-01T01:16:27;0.50;;;0.50;;
4821;SDS011;2425;47.794;13.068;2023-02-01T01:18:55;1.03;;;0.80;;
4821;SDS011;2425;47.794;13.068;2023-02-01T01:21:22;0.87;;;0.87;;
4821;SDS011;2425;47.794;13.068;2023-02-01T01:23:49;0.50;;;0.50;;
4821;SDS011;2425;47.794;13.068;2023-02-01T01:26:18;1.23;;;1.10;;
4821;SDS011;2425;47.794;13.068;2023-02-01T01:28:45;0.90;;;0.90;;
4821;SDS011;2425;47.794;13.068;2023-02-01T01:31:14;0.53;;;0.53;;
4821;SDS011;2425;47.794;13.068;2023-02-01T01:33:41;0.60;;;0.60;;
4821;SDS011;2425;47.794;13.068;2023-02-01T01:36:09;0.70;;;0.70;;
4821;SDS011;2425;47.794;13.068;2023-02-01T01:38:37;0.77;;;0.77;;
4821;SDS011;2425;47.794;13.068;2023-02-01T01:41:04;0.80;;;0.80;;
4821;SDS011;2425;47.794;13.068;2023-02-01T01:43:45;1.00;;;0.90;;
4821;SDS011;2425;47.794;13.068;2023-02-01T01:46:19;0.70;;;0.70;;
4821;SDS011;2425;47.794;13.068;2023-02-01T01:48:48;1.07;;;0.63;;
4821;SDS011;2425;47.794;13.068;2023-02-01T01:51:17;0.93;;;0.93;;
4821;SDS011;2425;47.794;13.068;2023-02-01T01:53:48;0.90;;;0.90;;
4821;SDS011;2425;47.794;13.068;2023-02-01T01:56:19;1.07;;;0.90;;
4821;SDS011;2425;47.794;13.068;2023-02-01T01:58:46;0.80;;;0.80;;
4821;SDS011;2425;47.794;13.068;2023-02-01T02:01:13;0.87;;;0.87;;
4821;SDS011;2425;47.794;13.068;2023-02-01T02:03:42;3.60;;;0.80;;
4821;SDS011;2425;47.794;13.068;2023-02-01T02:06:11;0.97;;;0.87;;
4821;SDS011;2425;47.794;13.068;2023-02-01T02:08:42;0.73;;;0.73;;
4821;SDS011;2425;47.794;13.068;2023-02-01T02:11:09;0.73;;;0.73;;
4821;SDS011;2425;47.794;13.068;2023-02-01T02:13:38;0.60;;;0.60;;
4821;SDS011;2425;47.794;13.068;2023-02-01T02:16:33;0.80;;;0.80;;
4821;SDS011;2425;47.794;13.068;2023-02-01T02:22:46;1.23;;;0.60;;
4821;SDS011;2425;47.794;13.068;2023-02-01T02:25:32;1.00;;;0.90;;
4821;SDS011;2425;47.794;13.068;2023-02-01T02:28:09;0.73;;;0.73;;
4821;SDS011;2425;47.794;13.068;2023-02-01T02:30:52;1.00;;;0.63;;
4821;SDS011;2425;47.794;13.068;2023-02-01T02:33:43;0.50;;;0.50;;
4821;SDS011;2425;47.794;13.068;2023-02-01T02:36:19;0.80;;;0.80;;
4821;SDS011;2425;47.794;13.068;2023-02-01T02:38:58;1.03;;;0.70;;
4821;SDS011;2425;47.794;13.068;2023-02-01T02:41:31;0.80;;;0.80;;
4821;SDS011;2425;47.794;13.068;2023-02-01T02:44:20;0.70;;;0.70;;
4821;SDS011;2425;47.794;13.068;2023-02-01T02:47:13;5.03;;;0.60;;
4821;SDS011;2425;47.794;13.068;2023-02-01T02:49:55;0.43;;;0.43;;
4821;SDS011;2425;47.794;13.068;2023-02-01T02:52:43;0.70;;;0.70;;
4821;SDS011;2425;47.794;13.068;2023-02-01T02:55:29;0.77;;;0.77;;
4821;SDS011;2425;47.794;13.068;2023-02-01T02:57:58;2.43;;;0.67;;
4821;SDS011;2425;47.794;13.068;2023-02-01T03:00:42;0.87;;;0.60;;
4821;SDS011;2425;47.794;13.068;2023-02-01T03:03:27;0.60;;;0.60;;
4821;SDS011;2425;47.794;13.068;2023-02-01T03:06:13;0.60;;;0.60;;
4821;SDS011;2425;47.794;13.068;2023-02-01T03:08:42;0.60;;;0.60;;
4821;SDS011;2425;47.794;13.068;2023-02-01T03:11:10;0.53;;;0.53;;
4821;SDS011;2425;47.794;13.068;2023-02-01T03:13:40;1.67;;;0.80;;
4821;SDS011;2425;47.794;13.068;2023-02-01T03:16:09;0.60;;;0.60;;
4821;SDS011;2425;47.794;13.068;2023-02-01T03:18:41;0.60;;;0.60;;
4821;SDS011;2425;47.794;13.068;2023-02-01T03:21:16;0.77;;;0.40;;
4821;SDS011;2425;47.794;13.068;2023-02-01T03:23:44;0.80;;;0.50;;
4821;SDS011;2425;47.794;13.068;2023-02-01T03:26:13;2.00;;;0.60;;
4821;SDS011;2425;47.794;13.068;2023-02-01T03:28:42;1.53;;;0.70;;
4821;SDS011;2425;47.794;13.068;2023-02-01T03:31:11;0.80;;;0.80;;
4821;SDS011;2425;47.794;13.068;2023-02-01T03:33:39;0.80;;;0.80;;
4821;SDS011;2425;47.794;13.068;2023-02-01T03:36:09;3.10;;;0.73;;
4821;SDS011;2425;47.794;13.068;2023-02-01T03:38:43;1.53;;;0.70;;
4821;SDS011;2425;47.794;13.068;2023-02-01T03:41:16;0.60;;;0.60;;
4821;SDS011;2425;47.794;13.068;2023-02-01T03:43:48;0.40;;;0.40;;
4821;SDS011;2425;47.794;13.068;2023-02-01T03:46:20;0.60;;;0.60;;
4821;SDS011;2425;47.794;13.068;2023-02-01T03:48:49;6.73;;;0.70;;
4821;SDS011;2425;47.794;13.068;2023-02-01T03:51:19;0.63;;;0.60;;
4821;SDS011;2425;47.794;13.068;2023-02-01T03:53:47;0.70;;;0.70;;
4821;SDS011;2425;47.794;13.068;2023-02-01T03:56:14;0.50;;;0.50;;
4821;SDS011;2425;47.794;13.068;2023-02-01T03:58:42;0.77;;;0.77;;
4821;SDS011;2425;47.794;13.068;2023-02-01T04:01:23;0.50;;;0.50;;
4821;SDS011;2425;47.794;13.068;2023-02-01T04:03:50;0.73;;;0.73;;
4821;SDS011;2425;47.794;13.068;2023-02-01T04:06:17;0.57;;;0.57;;
4821;SDS011;2425;47.794;13.068;2023-02-01T04:08:45;0.50;;;0.50;;
4821;SDS011;2425;47.794;13.068;2023-02-01T04:11:12;0.50;;;0.50;;
4821;SDS011;2425;47.794;13.068;2023-02-01T04:13:39;0.53;;;0.53;;
4821;SDS011;2425;47.794;13.068;2023-02-01T04:16:05;0.50;;;0.50;;
4821;SDS011;2425;47.794;13.068;2023-02-01T04:18:32;0.80;;;0.60;;
4821;SDS011;2425;47.794;13.068;2023-02-01T04:20:59;5.20;;;0.60;;
4821;SDS011;2425;47.794;13.068;2023-02-01T04:23:28;0.70;;;0.50;;
4821;SDS011;2425;47.794;13.068;2023-02-01T04:25:58;1.43;;;0.47;;
4821;SDS011;2425;47.794;13.068;2023-02-01T04:28:25;0.40;;;0.40;;
4821;SDS011;2425;47.794;13.068;2023-02-01T04:30:52;0.40;;;0.40;;
4821;SDS011;2425;47.794;13.068;2023-02-01T04:33:19;0.50;;;0.50;;
4821;SDS011;2425;47.794;13.068;2023-02-01T04:35:45;0.40;;;0.40;;
4821;SDS011;2425;47.794;13.068;2023-02-01T04:38:13;0.60;;;0.60;;
4821;SDS011;2425;47.794;13.068;2023-02-01T04:40:41;0.40;;;0.40;;
4821;SDS011;2425;47.794;13.068;2023-02-01T04:43:08;0.40;;;0.40;;
4821;SDS011;2425;47.794;13.068;2023-02-01T04:45:34;0.53;;;0.50;;
4821;SDS011;2425;47.794;13.068;2023-02-01T04:48:01;1.47;;;0.60;;
4821;SDS011;2425;47.794;13.068;2023-02-01T04:50:28;0.40;;;0.40;;
4821;SDS011;2425;47.794;13.068;2023-02-01T04:52:55;0.30;;;0.30;;
4821;SDS011;2425;47.794;13.068;2023-02-01T04:55:21;0.40;;;0.40;;
4821;SDS011;2425;47.794;13.068;2023-02-01T04:57:50;0.53;;;0.53;;
4821;SDS011;2425;47.794;13.068;2023-02-01T05:00:17;0.43;;;0.43;;
4821;SDS011;2425;47.794;13.068;2023-02-01T05:02:44;0.97;;;0.70;;
4821;SDS011;2425;47.794;13.068;2023-02-01T05:05:11;0.60;;;0.60;;
4821;SDS011;2425;47.794;13.068;2023-02-01T05:07:37;1.03;;;0.60;;
4821;SDS011;2425;47.794;13.068;2023-02-01T05:10:04;9.60;;;0.60;;
4821;SDS011;2425;47.794;13.068;2023-02-01T05:12:31;0.50;;;0.50;;
4821;SDS011;2425;47.794;13.068;2023-02-01T05:15:17;0.60;;;0.60;;
4821;SDS011;2425;47.794;13.068;2023-02-01T05:17:44;0.57;;;0.57;;
4821;SDS011;2425;47.794;13.068;2023-02-01T05:20:10;0.60;;;0.60;;
4821;SDS011;2425;47.794;13.068;2023-02-01T05:22:37;0.60;;;0.60;;
4821;SDS011;2425;47.794;13.068;2023-02-01T05:25:04;0.60;;;0.60;;
4821;SDS011;2425;47.794;13.068;2023-02-01T05:27:31;0.50;;;0.50;;
4821;SDS011;2425;47.794;13.068;2023-02-01T05:29:58;0.60;;;0.60;;
4821;SDS011;2425;47.794;13.068;2023-02-01T05:32:26;0.60;;;0.60;;
4821;SDS011;2425;47.794;13.068;2023-02-01T05:34:53;0.30;;;0.30;;
4821;SDS011;2425;47.794;13.068;2023-02-01T05:37:20;0.50;;;0.40;;
4821;SDS011;2425;47.794;13.068;2023-02-01T05:39:46;3.20;;;0.50;;
4821;SDS011;2425;47.794;13.068;2023-02-01T05:42:13;0.60;;;0.60;;
4821;SDS011;2425;47.794;13.068;2023-02-01T05:44:40;0.50;;;0.50;;
4821;SDS011;2425;47.794;13.068;2023-02-01T05:47:07;0.60;;;0.47;;
4821;SDS011;2425;47.794;13.068;2023-02-01T05:49:35;0.37;;;0.37;;
4821;SDS011;2425;47.794;13.068;2023-02-01T05:52:01;0.40;;;0.40;;
4821;SDS011;2425;47.794;13.068;2023-02-01T05:54:28;0.70;;;0.40;;
4821;SDS011;2425;47.794;13.068;2023-02-01T05:56:55;0.50;;;0.50;;
4821;SDS011;2425;47.794;13.068;2023-02-01T05:59:22;0.53;;;0.53;;
4821;SDS011;2425;47.794;13.068;2023-02-01T06:01:48;0.60;;;0.57;;
4821;SDS011;2425;47.794;13.068;2023-02-01T06:04:15;0.40;;;0.40;;
4821;SDS011;2425;47.794;13.068;2023-02-01T06:06:43;0.50;;;0.50;;
4821;SDS011;2425;47.794;13.068;2023-02-01T06:09:10;0.63;;;0.63;;
4821;SDS011;2425;47.794;13.068;2023-02-01T06:11:37;0.47;;;0.47;;
4821;SDS011;2425;47.794;13.068;2023-02-01T06:14:03;0.47;;;0.47;;
4821;SDS011;2425;47.794;13.068;2023-02-01T06:16:32;0.70;;;0.70;;
4821;SDS011;2425;47.794;13.068;2023-02-01T06:18:59;1.27;;;0.40;;
4821;SDS011;2425;47.794;13.068;2023-02-01T06:21:26;0.67;;;0.40;;
4821;SDS011;2425;47.794;13.068;2023-02-01T06:23:54;0.50;;;0.50;;
4821;SDS011;2425;47.794;13.068;2023-02-01T06:26:22;0.47;;;0.47;;
4821;SDS011;2425;47.794;13.068;2023-02-01T06:28:49;0.53;;;0.53;;
4821;SDS011;2425;47.794;13.068;2023-02-01T06:31:16;0.63;;;0.50;;
4821;SDS011;2425;47.794;13.068;2023-02-01T06:33:43;0.57;;;0.57;;
4821;SDS011;2425;47.794;13.068;2023-02-01T06:36:10;0.50;;;0.50;;
4821;SDS011;2425;47.794;13.068;2023-02-01T06:38:38;0.50;;;0.50;;
4821;SDS011;2425;47.794;13.068;2023-02-01T06:41:06;0.60;;;0.60;;
4821;SDS011;2425;47.794;13.068;2023-02-01T06:43:33;0.67;;;0.67;;
4821;SDS011;2425;47.794;13.068;2023-02-01T06:46:01;0.93;;;0.93;;
4821;SDS011;2425;47.794;13.068;2023-02-01T06:48:28;5.20;;;0.67;;
4821;SDS011;2425;47.794;13.068;2023-02-01T06:50:56;0.70;;;0.70;;
4821;SDS011;2425;47.794;13.068;2023-02-01T06:53:23;0.93;;;0.63;;
4821;SDS011;2425;47.794;13.068;2023-02-01T06:55:53;3.87;;;0.43;;
4821;SDS011;2425;47.794;13.068;2023-02-01T06:58:22;1.23;;;1.00;;
4821;SDS011;2425;47.794;13.068;2023-02-01T07:00:49;6.13;;;0.60;;
4821;SDS011;2425;47.794;13.068;2023-02-01T07:03:18;1.57;;;1.40;;
4821;SDS011;2425;47.794;13.068;2023-02-01T07:05:45;8.50;;;1.67;;
4821;SDS011;2425;47.794;13.068;2023-02-01T07:08:12;1.43;;;1.30;;
4821;SDS011;2425;47.794;13.068;2023-02-01T07:10:39;3.30;;;2.50;;
4821;SDS011;2425;47.794;13.068;2023-02-01T07:13:05;6.37;;;5.67;;
4821;SDS011;2425;47.794;13.068;2023-02-01T07:15:34;1.73;;;1.50;;
4821;SDS011;2425;47.794;13.068;2023-02-01T07:18:00;1.70;;;1.60;;
4821;SDS011;2425;47.794;13.068;2023-02-01T07:20:27;3.20;;;1.47;;
4821;SDS011;2425;47.794;13.068;2023-02-01T07:22:54;2.07;;;1.97;;
4821;SDS011;2425;47.794;13.068;2023-02-01T07:25:21;7.07;;;1.10;;
4821;SDS011;2425;47.794;13.068;2023-02-01T07:27:48;7.07;;;4.80;;
4821;SDS011;2425;47.794;13.068;2023-02-01T07:30:15;5.27;;;3.20;;
4821;SDS011;2425;47.794;13.068;2023-02-01T07:32:44;4.83;;;3.83;;
4821;SDS011;2425;47.794;13.068;2023-02-01T07:35:10;3.73;;;1.80;;
4821;SDS011;2425;47.794;13.068;2023-02-01T07:37:39;13.23;;;1.60;;
4821;SDS011;2425;47.794;13.068;2023-02-01T07:40:06;2.73;;;2.00;;
4821;SDS011;2425;47.794;13.068;2023-02-01T07:42:34;3.30;;;1.30;;
4821;SDS011;2425;47.794;13.068;2023-02-01T07:45:01;2.80;;;1.00;;
4821;SDS011;2425;47.794;13.068;2023-02-01T07:47:28;4.13;;;1.23;;
4821;SDS011;2425;47.794;13.068;2023-02-01T07:49:58;1.40;;;1.30;;
4821;SDS011;2425;47.794;13.068;2023-02-01T07:52:27;4.17;;;2.07;;
4821;SDS011;2425;47.794;13.068;2023-02-01T07:54:54;6.27;;;1.43;;
4821;SDS011;2425;47.794;13.068;2023-02-01T07:57:20;1.17;;;1.10;;
4821;SDS011;2425;47.794;13.068;2023-02-01T07:59:47;2.43;;;0.80;;
4821;SDS011;2425;47.794;13.068;2023-02-01T08:02:31;1.30;;;1.30;;
4821;SDS011;2425;47.794;13.068;2023-02-01T08:04:59;1.30;;;1.30;;
4821;SDS011;2425;47.794;13.068;2023-02-01T08:07:26;2.30;;;1.47;;
4821;SDS011;2425;47.794;13.068;2023-02-01T08:09:53;1.40;;;1.30;;
4821;SDS011;2425;47.794;13.068;2023-02-01T08:12:19;3.10;;;1.37;;
4821;SDS011;2425;47.794;13.068;2023-02-01T08:14:46;2.73;;;1.60;;
4821;SDS011;2425;47.794;13.068;2023-02-01T08:17:13;9.13;;;6.00;;
4821;SDS011;2425;47.794;13.068;2023-02-01T08:19:40;3.40;;;3.10;;
4821;SDS011;2425;47.794;13.068;2023-02-01T08:22:08;5.93;;;2.10;;
4821;SDS011;2425;47.794;13.068;2023-02-01T08:24:34;2.50;;;1.30;;
4821;SDS011;2425;47.794;13.068;2023-02-01T08:27:04;2.57;;;1.07;;
4821;SDS011;2425;47.794;13.068;2023-02-01T08:29:31;4.10;;;1.30;;
4821;SDS011;2425;47.794;13.068;2023-02-01T08:31:58;1.93;;;1.00;;
4821;SDS011;2425;47.794;13.068;2023-02-01T08:34:24;1.13;;;1.03;;
4821;SDS011;2425;47.794;13.068;2023-02-01T08:36:52;8.10;;;1.37;;
4821;SDS011;2425;47.794;13.068;2023-02-01T08:39:24;1.37;;;1.10;;
4821;SDS011;2425;47.794;13.068;2023-02-01T08:41:51;5.30;;;1.20;;
4821;SDS011;2425;47.794;13.068;2023-02-01T08:44:32;3.13;;;1.00;;
4821;SDS011;2425;47.794;13.068;2023-02-01T08:46:59;4.50;;;1.57;;
4821;SDS011;2425;47.794;13.068;2023-02-01T08:49:26;7.60;;;1.30;;
4821;SDS011;2425;47.794;13.068;2023-02-01T08:51:52;4.67;;;1.30;;
4821;SDS011;2425;47.794;13.068;2023-02-01T08:54:20;1.10;;;1.07;;
4821;SDS011;2425;47.794;13.068;2023-02-01T08:56:48;1.40;;;1.10;;
4821;SDS011;2425;47.794;13.068;2023-02-01T08:59:15;1.23;;;0.90;;
4821;SDS011;2425;47.794;13.068;2023-02-01T09:01:41;0.90;;;0.90;;
4821;SDS011;2425;47.794;13.068;2023-02-01T09:04:08;0.83;;;0.83;;
4821;SDS011;2425;47.794;13.068;2023-02-01T09:06:35;2.60;;;1.17;;
4821;SDS011;2425;47.794;13.068;2023-02-01T09:09:02;2.10;;;1.10;;
4821;SDS011;2425;47.794;13.068;2023-02-01T09:11:28;1.03;;;1.03;;
4821;SDS011;2425;47.794;13.068;2023-02-01T09:13:57;4.73;;;1.10;;
4821;SDS011;2425;47.794;13.068;2023-02-01T09:16:24;2.20;;;1.00;;
4821;SDS011;2425;47.794;13.068;2023-02-01T09:18:51;1.17;;;0.90;;
4821;SDS011;2425;47.794;13.068;2023-02-01T09:21:17;1.10;;;1.10;;
4821;SDS011;2425;47.794;13.068;2023-02-01T09:23:44;1.60;;;1.03;;
4821;SDS011;2425;47.794;13.068;2023-02-01T09:26:13;1.50;;;0.93;;
4821;SDS011;2425;47.794;13.068;2023-02-01T09:28:40;1.27;;;1.17;;
4821;SDS011;2425;47.794;13.068;2023-02-01T09:31:08;0.90;;;0.80;;
4821;SDS011;2425;47.794;13.068;2023-02-01T09:33:35;0.90;;;0.83;;
4821;SDS011;2425;47.794;13.068;2023-02-01T09:36:03;0.80;;;0.80;;
4821;SDS011;2425;47.794;13.068;2023-02-01T09:38:31;0.90;;;0.70;;
4821;SDS011;2425;47.794;13.068;2023-02-01T09:40:58;2.73;;;0.93;;
4821;SDS011;2425;47.794;13.068;2023-02-01T09:43:29;1.03;;;0.90;;
4821;SDS011;2425;47.794;13.068;2023-02-01T09:46:06;1.50;;;1.10;;
4821;SDS011;2425;47.794;13.068;2023-02-01T09:48:45;1.70;;;0.80;;
4821;SDS011;2425;47.794;13.068;2023-02-01T09:51:13;3.50;;;0.97;;
4821;SDS011;2425;47.794;13.068;2023-02-01T09:53:42;2.60;;;1.10;;
4821;SDS011;2425;47.794;13.068;2023-02-01T09:56:12;1.03;;;0.93;;
4821;SDS011;2425;47.794;13.068;2023-02-01T09:58:41;1.00;;;1.00;;
4821;SDS011;2425;47.794;13.068;2023-02-01T10:01:10;3.67;;;0.83;;
4821;SDS011;2425;47.794;13.068;2023-02-01T10:03:43;2.57;;;1.03;;
4821;SDS011;2425;47.794;13.068;2023-02-01T10:06:17;1.90;;;0.90;;
4821;SDS011;2425;47.794;13.068;2023-02-01T10:09:08;6.40;;;1.00;;
4821;SDS011;2425;47.794;13.068;2023-02-01T10:11:42;17.83;;;11.53;;
4821;SDS011;2425;47.794;13.068;2023-02-01T10:14:26;15.93;;;10.10;;
4821;SDS011;2425;47.794;13.068;2023-02-01T10:17:21;12.40;;;3.03;;
4821;SDS011;2425;47.794;13.068;2023-02-01T10:19:58;2.57;;;2.37;;
4821;SDS011;2425;47.794;13.068;2023-02-01T10:22:34;1.90;;;1.80;;
4821;SDS011;2425;47.794;13.068;2023-02-01T10:25:08;2.83;;;1.73;;
4821;SDS011;2425;47.794;13.068;2023-02-01T10:27:40;9.67;;;1.27;;
4821;SDS011;2425;47.794;13.068;2023-02-01T10:30:14;2.60;;;1.57;;
4821;SDS011;2425;47.794;13.068;2023-02-01T10:32:44;2.30;;;1.10;;
4821;SDS011;2425;47.794;13.068;2023-02-01T10:35:15;2.83;;;1.33;;
4821;SDS011;2425;47.794;13.068;2023-02-01T10:37:43;2.13;;;1.57;;
4821;SDS011;2425;47.794;13.068;2023-02-01T10:40:16;2.87;;;1.40;;
4821;SDS011;2425;47.794;13.068;2023-02-01T10:42:46;3.00;;;1.13;;
4821;SDS011;2425;47.794;13.068;2023-02-01T10:45:14;12.07;;;2.33;;
4821;SDS011;2425;47.794;13.068;2023-02-01T10:47:43;7.13;;;1.70;;
4821;SDS011;2425;47.794;13.068;2023-02-01T10:50:15;9.00;;;1.90;;
4821;SDS011;2425;47.794;13.068;2023-02-01T10:52:46;13.70;;;1.93;;
4821;SDS011;2425;47.794;13.068;2023-02-01T10:55:34;12.10;;;2.00;;
4821;SDS011;2425;47.794;13.068;2023-02-01T10:58:04;10.13;;;1.63;;
4821;SDS011;2425;47.794;13.068;2023-02-01T11:00:41;4.50;;;1.50;;
4821;SDS011;2425;47.794;13.068;2023-02-01T11:03:21;27.03;;;2.90;;
4821;SDS011;2425;47.794;13.068;2023-02-01T11:05:50;4.97;;;1.27;;
4821;SDS011;2425;47.794;13.068;2023-02-01T11:08:17;9.10;;;2.20;;
4821;SDS011;2425;47.794;13.068;2023-02-01T11:10:44;10.20;;;1.83;;
4821;SDS011;2425;47.794;13.068;2023-02-01T11:13:13;7.57;;;1.37;;
4821;SDS011;2425;47.794;13.068;2023-02-01T11:15:45;6.60;;;2.00;;
4821;SDS011;2425;47.794;13.068;2023-02-01T11:18:15;8.77;;;1.60;;
4821;SDS011;2425;47.794;13.068;2023-02-01T11:20:43;4.87;;;1.80;;
4821;SDS011;2425;47.794;13.068;2023-02-01T11:23:15;6.90;;;1.60;;
4821;SDS011;2425;47.794;13.068;2023-02-01T11:25:47;10.67;;;2.27;;
4821;SDS011;2425;47.794;13.068;2023-02-01T11:28:15;31.63;;;11.30;;
4821;SDS011;2425;47.794;13.068;2023-02-01T11:30:43;19.10;;;6.27;;
4821;SDS011;2425;47.794;13.068;2023-02-01T11:33:12;9.53;;;3.23;;
4821;SDS011;2425;47.794;13.068;2023-02-01T11:35:41;10.33;;;3.37;;
4821;SDS011;2425;47.794;13.068;2023-02-01T11:38:12;7.70;;;2.33;;
4821;SDS011;2425;47.794;13.068;2023-02-01T11:40:46;18.80;;;3.23;;
4821;SDS011;2425;47.794;13.068;2023-02-01T11:43:13;8.83;;;3.30;;
4821;SDS011;2425;47.794;13.068;2023-02-01T11:45:44;17.17;;;4.60;;
4821;SDS011;2425;47.794;13.068;2023-02-01T11:48:20;31.00;;;9.17;;
4821;SDS011;2425;47.794;13.068;2023-02-01T11:50:53;19.53;;;7.27;;
4821;SDS011;2425;47.794;13.068;2023-02-01T11:53:38;19.10;;;6.53;;
4821;SDS011;2425;47.794;13.068;2023-02-01T11:56:23;18.50;;;5.20;;
4821;SDS011;2425;47.794;13.068;2023-02-01T11:59:00;10.63;;;4.67;;
4821;SDS011;2425;47.794;13.068;2023-02-01T12:01:45;23.07;;;4.67;;
4821;SDS011;2425;47.794;13.068;2023-02-01T12:07:45;9.10;;;3.90;;
4821;SDS011;2425;47.794;13.068;2023-02-01T12:10:23;9.50;;;3.40;;
4821;SDS011;2425;47.794;13.068;2023-02-01T12:12:57;16.00;;;3.73;;
4821;SDS011;2425;47.794;13.068;2023-02-01T12:15:35;6.70;;;2.90;;
4821;SDS011;2425;47.794;13.068;2023-02-01T12:24:25;7.80;;;3.83;;
4821;SDS011;2425;47.794;13.068;2023-02-01T12:27:10;15.00;;;3.90;;
4821;SDS011;2425;47.794;13.068;2023-02-01T12:29:51;11.30;;;4.30;;
4821;SDS011;2425;47.794;13.068;2023-02-01T12:32:29;15.20;;;4.20;;
4821;SDS011;2425;47.794;13.068;2023-02-01T12:35:09;21.77;;;3.97;;
4821;SDS011;2425;47.794;13.068;2023-02-01T12:37:58;7.73;;;3.60;;
4821;SDS011;2425;47.794;13.068;2023-02-01T12:40:39;15.30;;;4.03;;
4821;SDS011;2425;47.794;13.068;2023-02-01T12:43:13;22.13;;;3.93;;
4821;SDS011;2425;47.794;13.068;2023-02-01T12:45:48;16.20;;;3.77;;
4821;SDS011;2425;47.794;13.068;2023-02-01T12:48:28;14.27;;;4.00;;
4821;SDS011;2425;47.794;13.068;2023-02-01T12:50:59;16.30;;;3.37;;
4821;SDS011;2425;47.794;13.068;2023-02-01T12:53:33;6.67;;;2.90;;
4821;SDS011;2425;47.794;13.068;2023-02-01T12:56:10;10.90;;;3.90;;
4821;SDS011;2425;47.794;13.068;2023-02-01T12:58:41;4.80;;;2.90;;
4821;SDS011;2425;47.794;13.068;2023-02-01T13:01:12;11.30;;;3.80;;
4821;SDS011;2425;47.794;13.068;2023-02-01T13:03:42;17.23;;;3.90;;
4821;SDS011;2425;47.794;13.068;2023-02-01T13:06:15;15.20;;;4.70;;
4821;SDS011;2425;47.794;13.068;2023-02-01T13:08:45;13.73;;;4.23;;
4821;SDS011;2425;47.794;13.068;2023-02-01T13:11:16;10.07;;;4.90;;
4821;SDS011;2425;47.794;13.068;2023-02-01T13:13:46;19.03;;;4.67;;
4821;SDS011;2425;47.794;13.068;2023-02-01T13:16:20;13.50;;;4.30;;
4821;SDS011;2425;47.794;13.068;2023-02-01T13:18:53;24.80;;;4.60;;
4821;SDS011;2425;47.794;13.068;2023-02-01T13:21:24;15.83;;;4.23;;
4821;SDS011;2425;47.794;13.068;2023-02-01T13:23:54;8.63;;;2.93;;
4821;SDS011;2425;47.794;13.068;2023-02-01T13:26:21;7.57;;;1.80;;
4821;SDS011;2425;47.794;13.068;2023-02-01T13:28:49;6.13;;;1.70;;
4821;SDS011;2425;47.794;13.068;2023-02-01T13:31:25;9.07;;;1.70;;
4821;SDS011;2425;47.794;13.068;2023-02-01T13:37:18;6.30;;;2.20;;
4821;SDS011;2425;47.794;13.068;2023-02-01T13:39:57;6.20;;;2.40;;
4821;SDS011;2425;47.794;13.068;2023-02-01T13:42:31;10.50;;;2.30;;
4821;SDS011;2425;47.794;13.068;2023-02-01T13:45:01;16.07;;;2.57;;
4821;SDS011;2425;47.794;13.068;2023-02-01T13:47:30;5.40;;;2.10;;
4821;SDS011;2425;47.794;13.068;2023-02-01T13:49:59;7.43;;;2.17;;
4821;SDS011;2425;47.794;13.068;2023-02-01T13:52:36;5.83;;;2.50;;
4821;SDS011;2425;47.794;13.068;2023-02-01T13:55:15;4.57;;;1.93;;
4821;SDS011;2425;47.794;13.068;2023-02-01T13:57:51;13.40;;;1.97;;
4821;SDS011;2425;47.794;13.068;2023-02-01T14:00:32;6.60;;;1.80;;
4821;SDS011;2425;47.794;13.068;2023-02-01T14:03:10;5.53;;;1.80;;
4821;SDS011;2425;47.794;13.068;2023-02-01T14:05:57;9.77;;;2.27;;
4821;SDS011;2425;47.794;13.068;2023-02-01T14:08:43;10.43;;;2.20;;
4821;SDS011;2425;47.794;13.068;2023-02-01T14:11:35;9.50;;;2.00;;
4821;SDS011;2425;47.794;13.068;2023-02-01T14:14:07;4.37;;;1.87;;
4821;SDS011;2425;47.794;13.068;2023-02-01T14:23:20;14.33;;;2.00;;
4821;SDS011;2425;47.794;13.068;2023-02-01T14:28:32;4.23;;;1.70;;
4821;SDS011;2425;47.794;13.068;2023-02-01T14:31:06;4.37;;;1.37;;
4821;SDS011;2425;47.794;13.068;2023-02-01T14:33:42;12.83;;;2.00;;
4821;SDS011;2425;47.794;13.068;2023-02-01T14:36:10;9.07;;;1.80;;
4821;SDS011;2425;47.794;13.068;2023-02-01T14:38:39;2.20;;;1.53;;
4821;SDS011;2425;47.794;13.068;2023-02-01T14:41:13;7.60;;;2.50;;
4821;SDS011;2425;47.794;13.068;2023-02-01T14:43:51;3.87;;;1.70;;
4821;SDS011;2425;47.794;13.068;2023-02-01T14:52:46;4.37;;;2.07;;
4821;SDS011;2425;47.794;13.068;2023-02-01T14:55:15;4.40;;;1.63;;
4821;SDS011;2425;47.794;13.068;2023-02-01T14:57:43;5.23;;;1.90;;
4821;SDS011;2425;47.794;13.068;2023-02-01T15:00:18;5.47;;;2.07;;
4821;SDS011;2425;47.794;13.068;2023-02-01T15:02:51;4.37;;;1.70;;
4821;SDS011;2425;47.794;13.068;2023-02-01T15:05:24;5.20;;;1.70;;
4821;SDS011;2425;47.794;13.068;2023-02-01T15:07:55;3.47;;;1.50;;
4821;SDS011;2425;47.794;13.068;2023-02-01T15:10:21;3.37;;;1.53;;
4821;SDS011;2425;47.794;13.068;2023-02-01T15:12:50;2.30;;;1.40;;
4821;SDS011;2425;47.794;13.068;2023-02-01T15:15:17;4.67;;;1.60;;
4821;SDS011;2425;47.794;13.068;2023-02-01T15:17:49;5.20;;;1.50;;
4821;SDS011;2425;47.794;13.068;2023-02-01T15:20:18;1.60;;;1.10;;
4821;SDS011;2425;47.794;13.068;2023-02-01T15:22:54;8.57;;;1.57;;
4821;SDS011;2425;47.794;13.068;2023-02-01T15:25:22;4.87;;;1.60;;
4821;SDS011;2425;47.794;13.068;2023-02-01T15:27:50;3.47;;;1.63;;
4821;SDS011;2425;47.794;13.068;2023-02-01T15:30:18;8.93;;;1.63;;
4821;SDS011;2425;47.794;13.068;2023-02-01T15:32:47;4.63;;;1.40;;
4821;SDS011;2425;47.794;13.068;2023-02-01T15:35:33;5.03;;;1.53;;
4821;SDS011;2425;47.794;13.068;2023-02-01T15:41:05;5.33;;;1.40;;
4821;SDS011;2425;47.794;13.068;2023-02-01T15:43:34;8.00;;;1.70;;
4821;SDS011;2425;47.794;13.068;2023-02-01T15:46:03;4.53;;;1.50;;
4821;SDS011;2425;47.794;13.068;2023-02-01T15:48:35;2.10;;;1.40;;
4821;SDS011;2425;47.794;13.068;2023-02-01T15:51:04;1.80;;;1.27;;
4821;SDS011;2425;47.794;13.068;2023-02-01T15:53:31;3.43;;;1.60;;
4821;SDS011;2425;47.794;13.068;2023-02-01T15:56:00;4.70;;;1.13;;